.
WxDataArchive / Data Records for 2007-07-26
2007-07-25 July 2007 2007-07-27

Data Records for Thursday, 26 July 2007

Time	Temp	Chill	HIndex	Humid	Dewpt	 Wind 	HiWind	WindDir	Rain 	Barom 
-----	----	-----	------	-----	-----	------	------	-------	-----	----- 
00:00	63.1	63.1	63.1	97	62.2	0	1	248	0.00	29.977 
00:05	63.1	63.1	63.1	97	62.2	0	2	248	0.00	29.978 
00:10	63.1	63.1	63.1	97	62.2	0	0	---	0.00	29.978 
00:15	62.9	62.9	62.9	97	62.0	0	1	248	0.00	29.977 
00:20	62.7	62.7	62.7	97	61.8	0	1	248	0.00	29.976 
00:25	62.6	62.6	62.6	97	61.7	0	1	248	0.00	29.975 
00:30	62.4	62.4	62.4	97	61.5	0	0	---	0.00	29.976 
00:35	62.4	62.4	62.4	97	61.5	0	2	248	0.00	29.979 
00:40	62.3	62.3	62.3	97	61.4	0	1	248	0.00	29.980 
00:45	62.3	62.3	62.3	97	61.4	0	1	248	0.00	29.981 
00:50	62.3	62.3	62.3	97	61.4	0	1	248	0.00	29.980 
00:55	62.1	62.1	62.1	97	61.2	0	0	---	0.00	29.981 
01:00	62.1	62.1	62.1	97	61.2	0	1	248	0.00	29.981 
01:05	62.1	62.1	62.1	97	61.2	0	1	248	0.00	29.980 
01:10	62.1	62.1	62.1	97	61.2	0	0	---	0.00	29.977 
01:15	62.1	62.1	62.1	97	61.2	0	1	248	0.00	29.976 
01:20	62.1	62.1	62.1	97	61.2	0	1	248	0.00	29.976 
01:25	62.3	62.3	62.3	97	61.4	0	1	248	0.00	29.976 
01:30	62.3	62.3	62.3	97	61.4	0	2	248	0.00	29.977 
01:35	62.4	62.4	62.4	97	61.5	0	2	248	0.00	29.977 
01:40	62.4	62.4	62.4	97	61.5	0	1	248	0.00	29.977 
01:45	62.4	62.4	62.4	97	61.5	0	1	248	0.00	29.977 
01:50	62.4	62.4	62.4	97	61.5	0	1	248	0.00	29.977 
01:55	62.6	62.6	62.6	97	61.7	0	1	248	0.00	29.976 
02:00	62.6	62.6	62.6	97	61.7	0	1	248	0.00	29.976 
02:05	62.6	62.6	62.6	97	61.7	0	0	---	0.00	29.977 
02:10	62.7	62.7	62.7	97	61.8	0	1	248	0.00	29.974 
02:15	62.6	62.6	62.6	97	61.7	0	1	248	0.00	29.971 
02:20	62.4	62.4	62.4	97	61.5	0	0	---	0.00	29.970 
02:25	62.4	62.4	62.4	97	61.5	0	1	248	0.00	29.968 
02:30	62.3	62.3	62.3	97	61.4	0	1	248	0.00	29.967 
02:35	62.3	62.3	62.3	97	61.4	0	0	---	0.00	29.966 
02:40	62.3	62.3	62.3	97	61.4	0	1	248	0.00	29.964 
02:45	62.1	62.1	62.1	97	61.2	0	0	---	0.00	29.965 
02:50	62.1	62.1	62.1	97	61.2	0	0	---	0.00	29.967 
02:55	62.1	62.1	62.1	97	61.2	0	0	---	0.00	29.970 
03:00	62.1	62.1	62.1	97	61.2	0	0	---	0.00	29.971 
03:05	62.1	62.1	62.1	97	61.2	0	1	248	0.00	29.973 
03:10	62.1	62.1	62.1	97	61.2	0	1	248	0.00	29.972 
03:15	62.1	62.1	62.1	97	61.2	0	2	248	0.00	29.972 
03:20	62.1	62.1	62.1	97	61.2	0	1	225	0.00	29.973 
03:25	62.0	62.0	62.0	97	61.1	0	1	225	0.00	29.966 
03:30	62.0	62.0	62.0	97	61.1	0	1	225	0.00	29.965 
03:35	61.8	61.8	61.8	97	60.9	0	1	225	0.00	29.968 
03:40	61.6	61.6	61.6	97	60.7	0	1	225	0.00	29.970 
03:45	61.6	61.6	61.6	97	60.7	0	1	225	0.00	29.966 
03:50	61.5	61.5	61.5	97	60.6	0	1	225	0.00	29.965 
03:55	61.5	61.5	61.5	97	60.6	0	1	225	0.00	29.966 
04:00	61.3	61.3	61.3	97	60.4	0	0	---	0.00	29.970 
04:05	61.5	61.5	61.5	97	60.6	0	1	225	0.00	29.976 
04:10	61.5	61.5	61.5	97	60.6	0	2	225	0.00	29.976 
04:15	61.6	61.6	61.6	97	60.7	0	0	---	0.00	29.979 
04:20	61.6	61.6	61.6	97	60.7	0	1	225	0.00	29.981 
04:25	61.8	61.8	61.8	97	60.9	0	1	225	0.00	29.981 
04:30	62.0	62.0	62.0	97	61.1	0	1	225	0.00	29.980 
04:35	62.0	62.0	62.0	97	61.1	0	1	225	0.00	29.981 
04:40	62.0	62.0	62.0	97	61.1	0	0	---	0.00	29.981 
04:45	62.1	62.1	62.1	97	61.2	0	1	225	0.00	29.980 
04:50	62.1	62.1	62.1	97	61.2	0	0	---	0.00	29.981 
04:55	62.1	62.1	62.1	97	61.2	0	0	---	0.00	29.980 
05:00	62.3	62.3	62.3	97	61.4	0	0	---	0.00	29.980 
05:05	62.3	62.3	62.3	97	61.4	0	0	---	0.00	29.985 
05:10	62.3	62.3	62.3	97	61.4	0	0	---	0.00	29.986 
05:15	62.3	62.3	62.3	97	61.4	0	0	---	0.00	29.986 
05:20	62.3	62.3	62.3	97	61.4	0	1	225	0.00	29.985 
05:25	62.4	62.4	62.4	97	61.5	0	0	---	0.00	29.985 
05:30	62.4	62.4	62.4	97	61.5	0	0	---	0.00	29.985 
05:35	62.4	62.4	62.4	97	61.5	0	0	---	0.00	29.986 
05:40	62.6	62.6	62.6	98	62.0	0	1	225	0.00	29.985 
05:45	62.6	62.6	62.6	98	62.0	0	0	---	0.00	29.986 
05:50	62.6	62.6	62.6	98	62.0	0	1	225	0.00	29.987 
05:55	62.6	62.6	62.6	98	62.0	0	1	225	0.00	29.986 
06:00	62.7	62.7	62.7	98	62.1	0	1	225	0.00	29.986 
06:05	62.7	62.7	62.7	98	62.1	0	1	225	0.00	29.985 
06:10	62.9	62.9	62.9	98	62.3	0	1	225	0.00	29.986 
06:15	63.1	63.1	63.1	98	62.5	0	1	225	0.00	29.986 
06:20	63.2	63.2	63.2	98	62.6	0	1	225	0.00	29.986 
06:25	63.2	63.2	63.2	98	62.6	0	1	225	0.00	29.985 
06:30	63.4	63.4	63.4	98	62.8	0	0	---	0.00	29.985 
06:35	63.5	63.5	63.5	98	62.9	0	1	225	0.00	29.984 
06:40	63.7	63.7	63.7	98	63.1	0	1	225	0.00	29.983 
06:45	63.9	63.9	63.9	98	63.3	0	2	225	0.00	29.983 
06:50	64.0	64.0	64.0	98	63.4	0	1	225	0.00	29.983 
06:55	64.2	64.2	64.2	98	63.6	0	1	225	0.00	29.984 
07:00	64.3	64.3	64.3	98	63.7	0	1	225	0.00	29.984 
07:05	64.5	64.5	64.5	98	63.9	0	2	225	0.00	29.980 
07:10	64.5	64.5	64.5	98	63.9	0	1	225	0.00	29.974 
07:15	64.7	64.7	64.7	98	64.1	0	2	225	0.00	29.975 
07:20	64.7	64.7	64.7	98	64.1	0	2	225	0.00	29.973 
07:25	64.8	64.8	64.8	97	63.9	0	1	202	0.00	29.973 
07:30	64.8	64.8	64.8	97	63.9	0	3	202	0.00	29.975 
07:35	65.0	65.0	65.0	97	64.1	0	1	202	0.00	29.975 
07:40	65.0	65.0	65.0	97	64.1	0	2	202	0.00	29.974 
07:45	65.2	65.2	65.2	97	64.3	1	3	338	0.00	29.972 
07:50	65.2	65.2	65.2	97	64.3	0	2	292	0.00	29.974 
07:55	65.3	65.3	65.3	97	64.4	0	2	292	0.00	29.973 
08:00	65.5	65.5	65.5	97	64.6	0	2	292	0.00	29.971 
08:05	65.5	65.5	65.5	96	64.3	0	2	338	0.00	29.973 
08:10	65.5	65.5	65.5	96	64.3	0	1	338	0.00	29.970 
08:15	65.6	65.6	65.6	96	64.4	0	2	0	0.00	29.971 
08:20	65.8	65.8	65.8	95	64.3	0	3	0	0.00	29.974 
08:25	66.0	66.0	66.0	95	64.5	1	2	68	0.00	29.973 
08:30	66.1	66.1	66.1	94	64.3	1	2	68	0.00	29.972 
08:35	66.1	66.1	66.1	94	64.3	1	3	68	0.00	29.974 
08:40	66.4	66.4	66.4	94	64.6	0	2	68	0.00	29.975 
08:45	66.6	66.6	66.6	93	64.5	1	5	90	0.00	29.974 
08:50	67.1	67.1	67.1	92	64.7	1	2	90	0.00	29.971 
08:55	67.4	67.4	67.4	92	65.0	1	3	90	0.00	29.971 
09:00	67.8	67.8	67.8	91	65.1	1	4	90	0.00	29.970 
09:05	67.9	67.9	67.9	90	64.9	1	3	270	0.00	29.969 
09:10	68.1	68.1	68.1	90	65.0	0	2	248	0.00	29.970 
09:15	68.3	68.3	68.3	89	64.9	1	3	112	0.00	29.969 
09:20	68.3	68.3	68.3	88	64.6	1	3	90	0.00	29.969 
09:25	68.3	68.3	68.3	89	64.9	0	2	90	0.00	29.971 
09:30	68.1	68.1	68.1	88	64.4	0	2	90	0.00	29.971 
09:35	67.9	67.9	67.9	89	64.5	1	2	90	0.00	29.972 
09:40	67.9	67.9	67.9	89	64.5	0	2	90	0.00	29.974 
09:45	67.8	67.8	67.8	89	64.4	0	3	90	0.00	29.973 
09:50	67.6	67.6	67.6	89	64.2	1	4	90	0.00	29.974 
09:55	67.6	67.6	67.6	89	64.2	0	2	90	0.00	29.975 
10:00	67.4	67.4	67.4	89	64.0	0	3	90	0.00	29.980 
10:05	67.3	67.3	67.3	89	63.9	1	3	90	0.00	29.981 
10:10	67.1	67.1	67.1	89	63.7	0	2	90	0.00	29.981 
10:15	67.1	67.1	67.1	89	63.7	0	1	90	0.00	29.981 
10:20	67.1	67.1	67.1	90	64.1	0	2	90	0.00	29.981 
10:25	66.9	66.9	66.9	90	63.9	1	2	90	0.00	29.977 
10:30	66.9	66.9	66.9	90	63.9	1	4	90	0.00	29.977 
10:35	66.9	66.9	66.9	90	63.9	0	3	112	0.00	29.978 
10:40	66.9	66.9	66.9	90	63.9	1	4	112	0.00	29.978 
10:45	66.9	66.9	66.9	90	63.9	1	3	112	0.00	29.978 
10:50	67.1	67.1	67.1	91	64.4	0	3	248	0.01	29.976 
10:55	67.1	67.1	67.1	92	64.7	0	2	248	0.00	29.977 
11:00	67.1	67.1	67.1	92	64.7	0	3	248	0.00	29.978 
11:05	66.9	66.9	66.9	92	64.5	0	2	90	0.00	29.978 
11:10	66.9	66.9	66.9	92	64.5	1	3	90	0.00	29.978 
11:15	66.9	66.9	66.9	92	64.5	0	2	90	0.00	29.979 
11:20	66.9	66.9	66.9	92	64.5	1	3	90	0.00	29.979 
11:25	67.3	67.3	67.3	93	65.2	1	3	135	0.00	29.979 
11:30	67.4	67.4	67.4	92	65.0	0	3	90	0.00	29.978 
11:35	67.6	67.6	67.6	92	65.2	1	4	90	0.00	29.977 
11:40	67.9	67.9	67.9	91	65.2	1	4	90	0.00	29.973 
11:45	68.4	68.4	68.4	92	66.0	1	3	90	0.00	29.971 
11:50	69.1	69.1	69.1	90	66.0	2	5	68	0.00	29.968 
11:55	69.4	69.4	69.4	88	65.7	1	5	90	0.00	29.967 
12:00	69.8	69.8	69.8	87	65.7	1	3	90	0.00	29.969 
12:05	69.9	69.9	69.9	86	65.5	2	5	112	0.00	29.968 
12:10	70.3	70.3	70.3	85	65.6	2	4	112	0.00	29.968 
12:15	70.6	70.6	70.6	84	65.5	2	7	90	0.00	29.967 
12:20	70.6	70.6	70.6	84	65.5	1	4	90	0.00	29.966 
12:25	70.6	70.6	70.6	84	65.5	3	7	90	0.00	29.967 
12:30	70.8	70.8	70.8	84	65.7	1	3	90	0.00	29.966 
12:35	70.9	70.9	70.9	83	65.5	0	4	225	0.00	29.966 
12:40	71.3	71.3	71.3	85	66.5	1	4	270	0.00	29.964 
12:45	71.6	71.6	71.6	83	66.2	1	3	0	0.00	29.961 
12:50	72.0	72.0	72.0	81	65.8	1	4	270	0.00	29.960 
12:55	72.1	72.1	72.1	81	65.9	1	5	90	0.00	29.958 
13:00	72.3	72.3	72.3	80	65.8	1	5	90	0.00	29.957 
13:05	72.5	72.5	72.5	80	66.0	0	2	90	0.00	29.952 
13:10	72.5	72.5	72.5	80	66.0	0	1	90	0.00	29.950 
13:15	72.5	72.5	72.5	80	66.0	1	4	90	0.00	29.948 
13:20	72.7	72.7	72.7	80	66.2	1	2	90	0.00	29.947 
13:25	72.8	72.8	72.8	81	66.6	0	3	90	0.00	29.946 
13:30	73.0	73.0	73.0	79	66.1	1	4	90	0.00	29.945 
13:35	73.0	73.0	73.0	80	66.5	1	4	248	0.00	29.942 
13:40	73.0	73.0	73.0	79	66.1	1	4	90	0.00	29.940 
13:45	73.2	73.2	73.2	78	65.9	1	4	90	0.00	29.937 
13:50	73.2	73.2	73.2	78	65.9	1	3	112	0.00	29.933 
13:55	73.3	73.3	73.3	78	66.0	1	3	112	0.00	29.933 
14:00	73.9	73.9	73.9	78	66.6	1	4	248	0.00	29.931 
14:05	75.1	75.1	76.1	77	67.4	1	4	248	0.00	29.931 
14:10	75.8	75.8	77.3	73	66.5	2	9	90	0.00	29.926 
14:15	76.3	76.3	77.8	73	67.0	1	4	68	0.00	29.923 
14:20	76.8	76.8	78.5	71	66.7	2	4	45	0.00	29.919 
14:25	77.0	77.0	78.7	72	67.3	2	4	248	0.00	29.919 
14:30	77.0	77.0	78.7	72	67.3	2	7	90	0.00	29.917 
14:35	77.0	77.0	78.8	71	66.9	2	7	112	0.00	29.915 
14:40	76.5	76.5	78.2	70	66.0	3	5	112	0.00	29.915 
14:45	76.3	76.3	77.8	73	67.0	0	2	68	0.00	29.916 
14:50	76.0	76.0	77.5	73	66.7	1	3	90	0.00	29.915 
14:55	75.8	75.8	77.3	73	66.5	1	2	270	0.00	29.914 
15:00	75.8	75.8	77.3	72	66.1	1	4	270	0.00	29.911 
15:05	76.1	76.1	77.5	74	67.2	0	2	90	0.00	29.909 
15:10	76.3	76.3	77.9	72	66.6	0	2	90	0.00	29.905 
15:15	77.0	77.0	78.7	72	67.3	1	2	68	0.00	29.899 
15:20	77.6	77.6	79.5	70	67.0	1	6	270	0.00	29.900 
15:25	78.1	78.1	80.0	67	66.2	1	3	270	0.00	29.899 
15:30	78.5	78.5	80.6	68	67.0	1	3	90	0.00	29.897 
15:35	79.0	79.0	81.3	68	67.5	2	5	112	0.00	29.896 
15:40	79.0	79.0	81.1	66	66.6	1	3	90	0.00	29.896 
15:45	79.0	79.0	81.1	66	66.6	1	3	90	0.00	29.893 
15:50	78.8	78.8	80.9	67	66.9	1	4	135	0.00	29.890 
15:55	78.5	78.5	80.6	68	67.0	1	2	248	0.00	29.887 
16:00	78.5	78.5	80.5	67	66.6	1	4	90	0.00	29.888 
16:05	78.6	78.6	80.7	68	67.1	2	4	112	0.00	29.887 
16:10	78.6	78.6	80.8	70	68.0	1	4	90	0.00	29.887 
16:15	79.0	79.0	81.2	67	67.1	1	3	90	0.00	29.885 
16:20	79.0	79.0	81.1	66	66.6	1	2	68	0.00	29.883 
16:25	78.6	78.6	80.7	67	66.7	1	4	90	0.00	29.884 
16:30	78.1	78.1	80.0	67	66.2	1	5	90	0.00	29.884 
16:35	77.7	77.7	79.6	67	65.8	0	2	270	0.00	29.885 
16:40	77.7	77.7	79.6	66	65.4	1	3	248	0.00	29.882 
16:45	77.9	77.9	79.7	65	65.2	1	6	270	0.00	29.880 
16:50	78.1	78.1	79.9	64	64.9	1	3	225	0.00	29.881 
16:55	78.5	78.5	80.4	64	65.3	1	3	248	0.00	29.881 
17:00	78.6	78.6	80.6	65	65.8	2	4	248	0.00	29.882 
17:05	78.5	78.5	80.4	65	65.7	2	5	270	0.00	29.880 
17:10	78.6	78.6	80.4	63	64.9	1	5	270	0.00	29.878 
17:15	78.6	78.6	80.4	63	64.9	1	4	270	0.00	29.879 
17:20	78.6	78.6	80.5	64	65.4	1	4	225	0.00	29.877 
17:25	78.6	78.6	80.5	64	65.4	1	4	248	0.00	29.875 
17:30	78.8	78.8	80.7	63	65.1	2	3	248	0.00	29.872 
17:35	79.2	79.2	81.2	64	65.9	2	7	270	0.00	29.866 
17:40	79.6	79.6	81.8	65	66.8	0	1	270	0.00	29.870 
17:45	79.6	79.6	81.7	64	66.3	1	7	90	0.00	29.866 
17:50	79.6	79.6	81.7	64	66.3	1	5	248	0.00	29.865 
17:55	79.4	79.4	81.6	65	66.6	1	4	292	0.00	29.866 
18:00	79.2	79.2	81.3	65	66.4	1	6	90	0.00	29.865 
18:05	79.2	79.2	81.3	65	66.4	0	5	90	0.00	29.863 
18:10	79.4	79.4	81.6	65	66.6	1	4	270	0.00	29.862 
18:15	79.2	79.2	81.2	64	65.9	1	6	270	0.00	29.862 
18:20	79.0	79.0	81.0	65	66.2	1	3	270	0.00	29.864 
18:25	78.6	78.6	80.6	65	65.8	2	5	248	0.00	29.864 
18:30	78.5	78.5	80.4	65	65.7	1	4	248	0.00	29.863 
18:35	78.5	78.5	80.4	65	65.7	2	7	270	0.00	29.861 
18:40	78.6	78.6	80.5	64	65.4	1	4	270	0.00	29.862 
18:45	78.5	78.5	80.4	65	65.7	1	3	248	0.00	29.864 
18:50	78.3	78.3	80.2	65	65.5	1	4	270	0.00	29.863 
18:55	78.3	78.3	80.2	65	65.5	1	3	270	0.00	29.863 
19:00	78.3	78.3	80.2	65	65.5	1	2	270	0.00	29.859 
19:05	78.1	78.1	80.0	65	65.4	1	3	248	0.00	29.856 
19:10	78.1	78.1	80.0	66	65.8	0	2	248	0.00	29.859 
19:15	77.9	77.9	79.7	65	65.2	1	2	248	0.00	29.861 
19:20	77.9	77.9	79.7	65	65.2	1	4	248	0.00	29.854 
19:25	77.7	77.7	79.5	65	65.0	1	3	270	0.00	29.851 
19:30	77.6	77.6	79.4	65	64.9	1	4	270	0.00	29.856 
19:35	77.6	77.6	79.4	65	64.9	1	3	270	0.00	29.857 
19:40	77.6	77.6	79.4	65	64.9	1	3	248	0.00	29.856 
19:45	77.4	77.4	79.2	66	65.1	1	3	248	0.00	29.858 
19:50	77.2	77.2	79.0	66	64.9	1	4	248	0.00	29.855 
19:55	77.0	77.0	78.8	67	65.2	1	6	248	0.00	29.850 
20:00	77.0	77.0	78.8	67	65.2	2	4	248	0.00	29.849 
20:05	77.0	77.0	78.8	68	65.6	2	4	248	0.00	29.846 
20:10	76.7	76.7	78.4	69	65.7	2	5	248	0.00	29.845 
20:15	76.5	76.5	78.2	69	65.6	2	4	248	0.00	29.845 
20:20	76.1	76.1	77.8	70	65.6	2	10	270	0.00	29.847 
20:25	75.8	75.8	77.4	70	65.3	2	7	248	0.00	29.848 
20:30	75.4	75.4	76.9	72	65.7	1	4	270	0.00	29.851 
20:35	75.1	75.1	76.5	73	65.8	2	4	248	0.00	29.859 
20:40	74.7	74.7	74.7	74	65.8	1	4	248	0.00	29.854 
20:45	74.6	74.6	74.6	74	65.7	1	4	248	0.00	29.852 
20:50	74.4	74.4	74.4	74	65.6	1	3	270	0.00	29.851 
20:55	74.2	74.2	74.2	75	65.8	1	4	270	0.00	29.855 
21:00	74.0	74.0	74.0	76	65.9	0	2	248	0.00	29.854 
21:05	74.0	74.0	74.0	76	65.9	1	3	248	0.00	29.854 
21:10	74.0	74.0	74.0	76	65.9	1	4	248	0.00	29.857 
21:15	74.0	74.0	74.0	76	65.9	2	4	248	0.00	29.857 
21:20	73.9	73.9	73.9	76	65.8	1	3	248	0.00	29.858 
21:25	73.9	73.9	73.9	77	66.2	1	3	248	0.00	29.859 
21:30	73.9	73.9	73.9	77	66.2	1	2	270	0.00	29.853 
21:35	73.9	73.9	73.9	77	66.2	1	3	248	0.00	29.854 
21:40	73.9	73.9	73.9	77	66.2	1	3	248	0.00	29.855 
21:45	73.9	73.9	73.9	77	66.2	0	3	270	0.00	29.855 
21:50	73.7	73.7	73.7	77	66.0	0	2	270	0.00	29.859 
21:55	73.5	73.5	73.5	78	66.2	0	2	270	0.00	29.854 
22:00	73.5	73.5	73.5	77	65.8	0	2	270	0.00	29.856 
22:05	73.7	73.7	73.7	77	66.0	0	3	270	0.00	29.855 
22:10	73.7	73.7	73.7	77	66.0	0	1	270	0.00	29.852 
22:15	73.5	73.5	73.5	77	65.8	0	1	270	0.00	29.853 
22:20	73.3	73.3	73.3	78	66.0	0	1	270	0.00	29.854 
22:25	73.3	73.3	73.3	78	66.0	0	2	270	0.00	29.852 
22:30	73.3	73.3	73.3	79	66.4	1	3	270	0.00	29.851 
22:35	73.3	73.3	73.3	79	66.4	1	2	292	0.00	29.849 
22:40	73.2	73.2	73.2	80	66.6	1	2	292	0.00	29.848 
22:45	72.8	72.8	72.8	81	66.6	0	1	270	0.00	29.845 
22:50	72.7	72.7	72.7	81	66.5	0	3	270	0.00	29.844 
22:55	72.5	72.5	72.5	82	66.7	1	3	270	0.00	29.843 
23:00	72.3	72.3	72.3	82	66.5	0	2	270	0.00	29.843 
23:05	72.3	72.3	72.3	83	66.8	0	1	270	0.00	29.846 
23:10	72.1	72.1	72.1	83	66.6	0	2	270	0.00	29.845 
23:15	72.0	72.0	72.0	84	66.9	0	1	270	0.00	29.845 
23:20	71.8	71.8	71.8	84	66.7	0	1	270	0.00	29.842 
23:25	71.5	71.5	71.5	84	66.4	0	1	270	0.00	29.845 
23:30	71.3	71.3	71.3	85	66.5	0	1	270	0.00	29.848 
23:35	71.3	71.3	71.3	85	66.5	0	1	270	0.00	29.846 
23:40	71.3	71.3	71.3	85	66.5	0	1	270	0.00	29.846 
23:45	71.3	71.3	71.3	85	66.5	0	1	270	0.00	29.847 
23:50	71.3	71.3	71.3	85	66.5	0	3	270	0.00	29.848 
23:55	71.6	71.6	71.6	84	66.5	1	3	248	0.00	29.845 

CoCoRaHS
IN-AL-39
A2 Web Hosting
Creative Commons License
GoDaddy
Look for:

loaded 2017-12-12 14:53:43 • last modified 2010-11-18 10:43:29
Privacy PolicyDisclaimer
• wx.awcolley.com is powered by PmWiki v.2002016 •
• all content (unless otherwise noted) © 2017 A W Colley